Time;durP1;ratioP1;P1;durP2;ratioP2;P2;SDS_P1;SDS_P2;PMS_P1;PMS_P2;Temp;Humidity;BMP_temperature;BMP_pressure;BME280_temperature;BME280_humidity;BME280_pressure;Samples;Min_cycle;Max_cycle;Signal;HPM_P1;HPM_P2
2022/07/07 00:00:18;;;;;;;;;;;;;;;26.04;27.21;101683.88;5050401;28;20007;-86
2022/07/07 00:02:44;;;;;;;;;;;;;;;26.03;26.94;101680.25;5040180;28;20025;-85
2022/07/07 00:05:11;;;;;;;;;;;;;;;26.00;27.07;101682.53;5048172;28;19928;-86
2022/07/07 00:07:38;;;;;;;;;;;;;;;25.99;27.02;101673.31;5049171;28;20023;-86
2022/07/07 00:10:04;;;;;;;;;;;;;;;25.98;27.31;101667.94;5062762;28;19924;-87
2022/07/07 00:12:31;;;;;;;;;;;;;;;25.95;27.57;101668.28;5052517;28;19920;-87
2022/07/07 00:14:57;;;;;;;;;;;;;;;25.92;27.68;101655.63;5051712;28;19920;-87
2022/07/07 00:17:24;;;;;;;;;;;;;;;25.90;27.67;101657.72;5046795;28;19925;-87
2022/07/07 00:19:51;;;;;;;;;;;;;;;25.89;27.64;101658.75;5049985;28;19962;-87
2022/07/07 00:22:18;;;;;;;;;;;;;;;25.87;27.70;101666.41;5048897;28;20404;-87
2022/07/07 00:24:44;;;;;;;;;;;;;;;25.86;27.91;101663.84;5064642;28;19924;-86
2022/07/07 00:27:11;;;;;;;;;;;;;;;25.84;27.75;101658.47;5055779;28;20387;-86
2022/07/07 00:29:37;;;;;;;;;;;;;;;25.83;27.47;101659.50;5052135;28;19982;-86
2022/07/07 00:32:04;;;;;;;;;;;;;;;25.82;27.42;101649.41;5072049;28;19975;-86
2022/07/07 00:34:30;;;;;;;;;;;;;;;25.82;27.35;101652.19;5063631;28;20368;-87
2022/07/07 00:36:57;;;;;;;;;;;;;;;25.80;27.63;101645.94;5057119;28;19928;-85
2022/07/07 00:39:24;;;;;;;;;;;;;;;25.80;27.53;101642.28;5049900;28;19921;-87
2022/07/07 00:41:50;;;;;;;;;;;;;;;25.80;27.90;101636.72;5061939;28;19924;-87
2022/07/07 00:44:17;;;;;;;;;;;;;;;25.77;27.71;101626.88;5047240;28;19928;-87
2022/07/07 00:46:45;;;;;;;;;;;;;;;25.76;28.07;101616.78;5050138;28;19928;-87
2022/07/07 00:49:12;;;;;;;;;;;;;;;25.75;28.20;101609.47;5053398;28;19935;-86
2022/07/07 00:51:40;;;;;;;;;;;;;;;25.73;28.13;101606.88;5048542;28;19925;-87
2022/07/07 00:54:07;;;;;;;;;;;;;;;25.72;27.66;101612.63;5064878;28;20243;-87
2022/07/07 00:56:34;;;;;;;;;;;;;;;25.70;28.34;101604.44;5058477;28;20265;-87
2022/07/07 00:59:07;;;;;;;;;;;;;;;25.69;28.48;101599.97;5057657;28;19983;-87
2022/07/07 01:01:38;;;;;;;;;;;;;;;25.68;27.97;101602.91;5045798;28;20015;-86
2022/07/07 01:04:06;;;;;;;;;;;;;;;25.67;28.21;101606.75;5048128;28;19929;-87
2022/07/07 01:06:33;;;;;;;;;;;;;;;25.65;27.82;101595.81;5057704;28;20371;-86
2022/07/07 01:09:00;;;;;;;;;;;;;;;25.64;28.23;101607.09;5046926;28;20042;-87
2022/07/07 01:11:27;;;;;;;;;;;;;;;25.62;28.62;101601.72;5048314;28;20016;-87
2022/07/07 01:13:53;;;;;;;;;;;;;;;25.62;27.79;101603.63;5067667;28;20129;-87
2022/07/07 01:16:20;;;;;;;;;;;;;;;25.61;28.19;101604.69;5066295;28;20270;-87
2022/07/07 01:18:47;;;;;;;;;;;;;;;25.59;28.66;101601.22;5048391;28;20421;-86
2022/07/07 01:21:18;;;;;;;;;;;;;;;25.56;28.43;101607.97;5049600;28;20455;-87
2022/07/07 01:23:44;;;;;;;;;;;;;;;25.54;28.63;101598.94;5069414;28;19974;-86
2022/07/07 01:26:11;;;;;;;;;;;;;;;25.54;28.71;101592.50;5053704;28;19920;-87
2022/07/07 01:28:38;;;;;;;;;;;;;;;25.52;28.76;101589.06;5051022;28;20416;-86
2022/07/07 01:31:04;;;;;;;;;;;;;;;25.50;28.48;101583.69;5055843;28;20427;-85
2022/07/07 01:33:31;;;;;;;;;;;;;;;25.51;28.52;101582.66;5050407;28;19986;-86
2022/07/07 01:35:57;;;;;;;;;;;;;;;25.50;28.45;101577.25;5053300;28;20003;-86
2022/07/07 01:38:24;;;;;;;;;;;;;;;25.49;28.94;101570.84;5065344;28;20372;-87
2022/07/07 01:40:50;;;;;;;;;;;;;;;25.50;28.40;101580.03;5055380;28;19924;-87
2022/07/07 01:43:17;;;;;;;;;;;;;;;25.48;28.98;101568.22;5052895;28;19924;-86
2022/07/07 01:45:43;;;;;;;;;;;;;;;25.47;28.80;101572.91;5054853;28;19920;-87
2022/07/07 01:48:10;;;;;;;;;;;;;;;25.46;28.93;101568.41;5043151;28;19926;-86
2022/07/07 01:50:36;;;;;;;;;;;;;;;25.46;28.79;101562.84;5046527;28;19931;-86
2022/07/07 01:53:03;;;;;;;;;;;;;;;25.44;29.32;101551.06;5044193;28;19979;-87
2022/07/07 01:55:29;;;;;;;;;;;;;;;25.44;29.13;101547.41;5046874;28;20186;-86
2022/07/07 01:57:56;;;;;;;;;;;;;;;25.42;29.47;101543.94;5054957;28;20395;-87
2022/07/07 02:00:22;;;;;;;;;;;;;;;25.40;29.18;101533.00;5050429;28;20223;-87
2022/07/07 02:02:49;;;;;;;;;;;;;;;25.38;29.38;101533.16;5043974;28;19924;-87
2022/07/07 02:05:16;;;;;;;;;;;;;;;25.36;29.76;101532.50;5049992;28;19966;-87
2022/07/07 02:07:45;;;;;;;;;;;;;;;25.35;29.37;101528.00;5047405;28;19958;-87
2022/07/07 02:10:11;;;;;;;;;;;;;;;25.34;29.73;101526.25;5076101;28;20007;-87
2022/07/07 02:12:38;;;;;;;;;;;;;;;25.35;29.66;101529.91;5055453;28;20422;-87
2022/07/07 02:15:06;;;;;;;;;;;;;;;25.34;29.92;101528.19;5053673;28;20011;-87
2022/07/07 02:17:32;;;;;;;;;;;;;;;25.33;29.58;101526.44;5052431;28;19943;-86
2022/07/07 02:19:59;;;;;;;;;;;;;;;25.33;29.39;101532.00;5069335;28;19920;-87
2022/07/07 02:22:25;;;;;;;;;;;;;;;25.32;30.11;101524.69;5069936;28;20326;-86
2022/07/07 02:24:52;;;;;;;;;;;;;;;25.30;30.16;101530.44;5057349;28;20330;-86
2022/07/07 02:27:18;;;;;;;;;;;;;;;25.30;30.02;101530.44;5057763;28;20015;-88
2022/07/07 02:29:44;;;;;;;;;;;;;;;25.29;30.29;101509.25;5053673;28;20487;-86
2022/07/07 02:32:11;;;;;;;;;;;;;;;25.29;29.80;101516.72;5055785;28;20338;-86
2022/07/07 02:34:37;;;;;;;;;;;;;;;25.29;29.59;101509.25;5056734;28;20351;-86
2022/07/07 02:37:04;;;;;;;;;;;;;;;25.27;30.20;101504.94;5055065;28;19975;-87
2022/07/07 02:39:31;;;;;;;;;;;;;;;25.27;30.22;101510.50;5064153;28;20021;-87
2022/07/07 02:41:57;;;;;;;;;;;;;;;25.26;30.31;101512.41;5054735;28;19925;-87
2022/07/07 02:44:24;;;;;;;;;;;;;;;25.27;30.20;101516.06;5071324;28;19931;-87
2022/07/07 02:46:50;;;;;;;;;;;;;;;25.25;30.52;101513.47;5052920;28;19980;-86
2022/07/07 02:49:17;;;;;;;;;;;;;;;25.24;30.43;101519.19;5056483;28;19940;-87
2022/07/07 02:51:43;;;;;;;;;;;;;;;25.25;29.95;101515.38;5047985;28;20220;-87
2022/07/07 02:54:10;;;;;;;;;;;;;;;25.25;30.48;101518.16;5051018;28;20311;-87
2022/07/07 02:56:37;;;;;;;;;;;;;;;25.24;30.40;101513.63;5049945;28;19990;-87
2022/07/07 02:59:03;;;;;;;;;;;;;;;25.24;30.37;101510.84;5054349;28;20007;-87
2022/07/07 03:01:30;;;;;;;;;;;;;;;25.23;30.76;101500.78;5048894;28;20127;-87
2022/07/07 03:03:56;;;;;;;;;;;;;;;25.22;30.28;101511.03;5057084;28;19920;-86
2022/07/07 03:06:23;;;;;;;;;;;;;;;25.21;30.60;101503.72;5070116;28;20088;-87
2022/07/07 03:08:49;;;;;;;;;;;;;;;25.21;30.65;101517.63;5064615;28;19949;-87
2022/07/07 03:11:16;;;;;;;;;;;;;;;25.20;30.94;101504.78;5062069;28;19933;-86
2022/07/07 03:13:42;;;;;;;;;;;;;;;25.19;30.85;101505.84;5046478;28;19921;-87
2022/07/07 03:16:09;;;;;;;;;;;;;;;25.19;30.98;101504.97;5049389;28;19928;-87
2022/07/07 03:18:35;;;;;;;;;;;;;;;25.18;30.96;101511.59;5052281;28;20439;-87
2022/07/07 03:21:02;;;;;;;;;;;;;;;25.17;30.77;101507.94;5061361;28;19983;-86
2022/07/07 03:23:28;;;;;;;;;;;;;;;25.16;30.87;101502.56;5057841;28;20342;-87
2022/07/07 03:25:56;;;;;;;;;;;;;;;25.14;31.51;101501.88;5049448;28;20003;-87
2022/07/07 03:28:22;;;;;;;;;;;;;;;25.14;31.08;101497.19;5065703;28;19921;-87
2022/07/07 03:30:49;;;;;;;;;;;;;;;25.12;31.34;101499.25;5051967;28;19966;-87
2022/07/07 03:33:15;;;;;;;;;;;;;;;25.11;31.62;101503.13;5061928;28;19931;-87
2022/07/07 03:35:42;;;;;;;;;;;;;;;25.10;31.45;101500.50;5054659;28;20425;-86
2022/07/07 03:38:08;;;;;;;;;;;;;;;25.10;30.94;101503.28;5055391;28;19920;-86
2022/07/07 03:40:35;;;;;;;;;;;;;;;25.09;31.51;101504.34;5063301;28;20321;-87
2022/07/07 03:43:02;;;;;;;;;;;;;;;25.08;31.25;101500.69;5048784;28;19921;-86
2022/07/07 03:45:28;;;;;;;;;;;;;;;25.08;31.08;101502.59;5055045;28;19924;-86
2022/07/07 03:47:55;;;;;;;;;;;;;;;25.06;31.50;101500.00;5050860;28;20401;-86
2022/07/07 03:50:21;;;;;;;;;;;;;;;25.06;31.57;101496.34;5051923;28;19928;-86
2022/07/07 03:52:48;;;;;;;;;;;;;;;25.05;31.41;101489.91;5050517;28;19931;-86
2022/07/07 03:55:15;;;;;;;;;;;;;;;25.05;31.66;101494.63;5054112;28;20287;-86
2022/07/07 03:57:41;;;;;;;;;;;;;;;25.03;31.84;101489.25;5050451;28;19921;-87
2022/07/07 04:00:08;;;;;;;;;;;;;;;25.03;31.73;101486.47;5048120;28;20381;-86
2022/07/07 04:02:35;;;;;;;;;;;;;;;25.01;31.38;101472.78;5049359;28;19994;-87
2022/07/07 04:05:02;;;;;;;;;;;;;;;25.01;31.99;101480.22;5050852;28;20344;-87
2022/07/07 04:07:28;;;;;;;;;;;;;;;25.00;31.99;101476.59;5050031;28;19954;-87
2022/07/07 04:09:55;;;;;;;;;;;;;;;24.99;31.98;101469.28;5054188;28;20376;-87
2022/07/07 04:12:21;;;;;;;;;;;;;;;24.99;31.85;101472.06;5050730;28;19921;-86
2022/07/07 04:14:48;;;;;;;;;;;;;;;24.99;31.98;101469.28;5048468;28;19924;-87
2022/07/07 04:17:14;;;;;;;;;;;;;;;25.00;32.11;101467.38;5051823;28;20296;-86
2022/07/07 04:19:41;;;;;;;;;;;;;;;24.97;32.09;101460.28;5049381;28;20360;-87
2022/07/07 04:22:07;;;;;;;;;;;;;;;24.98;31.99;101450.03;5046972;28;19924;-87
2022/07/07 04:24:34;;;;;;;;;;;;;;;24.97;31.90;101446.38;5047568;28;19920;-87
2022/07/07 04:27:01;;;;;;;;;;;;;;;24.97;31.76;101443.59;5046233;28;19920;-85
2022/07/07 04:29:27;;;;;;;;;;;;;;;24.97;32.37;101443.59;5043411;28;20576;-86
2022/07/07 04:31:54;;;;;;;;;;;;;;;24.96;32.56;101435.44;5055068;28;19920;-87
2022/07/07 04:34:22;;;;;;;;;;;;;;;24.96;32.04;101441.00;5051744;28;19921;-86
2022/07/07 04:36:49;;;;;;;;;;;;;;;24.96;32.28;101446.56;5057251;28;19920;-86
2022/07/07 04:39:16;;;;;;;;;;;;;;;24.96;32.09;101452.13;5046991;28;20027;-87
2022/07/07 04:41:42;;;;;;;;;;;;;;;24.95;32.27;101447.63;5058639;28;19920;-87
2022/07/07 04:44:09;;;;;;;;;;;;;;;24.94;31.94;101452.31;5075911;28;19921;-88
2022/07/07 04:46:35;;;;;;;;;;;;;;;24.94;32.18;101445.91;5047334;28;19929;-87
2022/07/07 04:49:02;;;;;;;;;;;;;;;24.93;32.21;101447.81;5053206;28;20338;-86
2022/07/07 04:51:29;;;;;;;;;;;;;;;24.93;32.25;101450.59;5046778;28;19920;-84
2022/07/07 04:53:55;;;;;;;;;;;;;;;24.91;32.25;101440.69;5051257;28;19921;-84
2022/07/07 04:56:22;;;;;;;;;;;;;;;24.90;32.35;101450.91;5050377;28;19920;-86
2022/07/07 04:58:48;;;;;;;;;;;;;;;24.88;32.09;101439.09;5050730;28;20020;-86
2022/07/07 05:01:15;;;;;;;;;;;;;;;24.88;32.56;101441.00;5065804;28;19921;-86
2022/07/07 05:03:42;;;;;;;;;;;;;;;24.86;32.89;101443.13;5062253;28;19921;-87
2022/07/07 05:06:09;;;;;;;;;;;;;;;24.84;32.72;101439.66;5036123;28;19987;-85
2022/07/07 05:08:35;;;;;;;;;;;;;;;24.82;32.87;101434.28;5026444;28;20453;-86
2022/07/07 05:11:02;;;;;;;;;;;;;;;24.81;33.29;101440.00;5043198;28;19920;-86
2022/07/07 05:13:29;;;;;;;;;;;;;;;24.81;32.33;101445.56;5049341;28;19929;-86
2022/07/07 05:15:56;;;;;;;;;;;;;;;24.79;32.91;101456.84;5044269;28;19920;-83
2022/07/07 05:18:23;;;;;;;;;;;;;;;24.77;33.43;101447.84;5048927;28;19924;-82
2022/07/07 05:20:49;;;;;;;;;;;;;;;24.75;33.58;101447.16;5050329;28;19982;-81
2022/07/07 05:23:16;;;;;;;;;;;;;;;24.73;34.26;101460.34;5038763;28;19971;-79
2022/07/07 05:25:42;;;;;;;;;;;;;;;24.72;34.28;101457.75;5054779;28;19921;-80
2022/07/07 05:28:09;;;;;;;;;;;;;;;24.71;33.38;101465.22;5048571;28;19956;-81
2022/07/07 05:30:35;;;;;;;;;;;;;;;24.69;34.30;101463.69;5047422;28;19966;-80
2022/07/07 05:33:02;;;;;;;;;;;;;;;24.67;34.35;101474.09;5046238;28;19943;-81
2022/07/07 05:35:29;;;;;;;;;;;;;;;24.64;33.56;101473.41;5042766;28;20007;-81
2022/07/07 05:37:55;;;;;;;;;;;;;;;24.62;34.09;101472.72;5040064;28;19947;-81
2022/07/07 05:40:22;;;;;;;;;;;;;;;24.61;33.59;101467.34;5047959;28;20006;-81
2022/07/07 05:42:48;;;;;;;;;;;;;;;24.59;34.04;101486.97;5049677;28;20316;-80
2022/07/07 05:45:20;;;;;;;;;;;;;;;24.55;34.18;101490.25;5046345;28;19925;-80
2022/07/07 05:47:47;;;;;;;;;;;;;;;24.53;34.32;101493.25;5051303;28;19925;-81
2022/07/07 05:50:13;;;;;;;;;;;;;;;24.50;35.00;101507.47;5046946;28;19929;-80
2022/07/07 05:52:40;;;;;;;;;;;;;;;24.47;34.71;101502.25;5048994;28;19974;-81
2022/07/07 05:55:09;;;;;;;;;;;;;;;24.47;34.54;101501.38;5050768;28;20328;-81
2022/07/07 05:57:35;;;;;;;;;;;;;;;24.45;34.92;101503.50;5046440;28;20025;-77
2022/07/07 06:00:02;;;;;;;;;;;;;;;24.42;34.96;101507.50;5053535;28;20569;-76
2022/07/07 06:02:29;;;;;;;;;;;;;;;24.40;35.21;101506.78;5041685;28;20031;-79
2022/07/07 06:04:56;;;;;;;;;;;;;;;24.38;35.40;101513.59;5051551;28;20658;-81
2022/07/07 06:07:22;;;;;;;;;;;;;;;24.36;35.35;101515.66;5046796;28;20375;-81
2022/07/07 06:09:49;;;;;;;;;;;;;;;24.34;35.56;101518.59;5050926;28;20296;-82
2022/07/07 06:12:15;;;;;;;;;;;;;;;24.33;35.75;101525.19;5056259;28;19933;-84
2022/07/07 06:14:41;;;;;;;;;;;;;;;24.32;35.49;101514.25;5043605;28;19960;-85
2022/07/07 06:17:09;;;;;;;;;;;;;;;24.31;35.97;101512.53;5068623;28;20356;-85
2022/07/07 06:19:37;;;;;;;;;;;;;;;24.30;35.41;101528.31;5067066;28;20007;-87
2022/07/07 06:22:04;;;;;;;;;;;;;;;24.31;35.50;101526.41;5043983;28;19924;-88
2022/07/07 06:24:30;;;;;;;;;;;;;;;24.30;35.86;101528.31;5039902;28;19964;-86
2022/07/07 06:26:57;;;;;;;;;;;;;;;24.29;35.93;101521.06;5040475;28;20270;-80
2022/07/07 06:29:23;;;;;;;;;;;;;;;24.30;35.57;101533.00;5045354;28;19921;-80
2022/07/07 06:31:50;;;;;;;;;;;;;;;24.30;36.03;101538.53;5048004;28;20350;-83
2022/07/07 06:34:16;;;;;;;;;;;;;;;24.30;35.80;101539.41;5051068;28;20349;-83
2022/07/07 06:36:43;;;;;;;;;;;;;;;24.30;36.27;101546.88;5047295;28;20326;-74
2022/07/07 06:39:09;;;;;;;;;;;;;;;24.30;36.12;101546.88;5055932;28;20350;-71
2022/07/07 06:41:39;;;;;;;;;;;;;;;24.29;36.25;101540.47;5045994;28;20341;-69
2022/07/07 06:44:06;;;;;;;;;;;;;;;24.30;35.59;101544.97;5049911;28;19959;-70
2022/07/07 06:46:33;;;;;;;;;;;;;;;24.29;36.43;101536.84;5042035;28;19963;-71
2022/07/07 06:49:00;;;;;;;;;;;;;;;24.29;36.56;101545.16;5044004;28;19924;-72
2022/07/07 06:51:26;;;;;;;;;;;;;;;24.28;36.43;101547.06;5050913;28;19924;-72
2022/07/07 06:53:54;;;;;;;;;;;;;;;24.28;36.08;101558.16;5045274;28;19957;-72
2022/07/07 06:56:21;;;;;;;;;;;;;;;24.27;36.08;101557.31;5054724;28;20390;-74
2022/07/07 06:58:47;;;;;;;;;;;;;;;24.26;36.53;101558.34;5070396;28;19950;-73
2022/07/07 07:01:14;;;;;;;;;;;;;;;24.27;36.24;101553.66;5067624;28;19967;-74
2022/07/07 07:03:40;;;;;;;;;;;;;;;24.27;36.77;101556.44;5065353;28;19970;-75
2022/07/07 07:06:07;;;;;;;;;;;;;;;24.28;36.72;101552.63;5067786;28;19971;-76
2022/07/07 07:08:34;;;;;;;;;;;;;;;24.31;36.52;101554.16;5055038;28;20043;-76
2022/07/07 07:11:01;;;;;;;;;;;;;;;24.31;36.89;101557.81;5061704;28;20014;-76
2022/07/07 07:13:27;;;;;;;;;;;;;;;24.35;36.69;101558.34;5051687;28;20326;-77
2022/07/07 07:15:54;;;;;;;;;;;;;;;24.37;36.79;101567.34;5066530;28;20016;-77
2022/07/07 07:18:21;;;;;;;;;;;;;;;24.37;36.78;101572.91;5065029;28;20018;-77
2022/07/07 07:20:47;;;;;;;;;;;;;;;24.39;37.09;101565.25;5080292;28;19921;-77
2022/07/07 07:23:14;;;;;;;;;;;;;;;24.40;36.83;101562.31;5047036;28;19921;-78
2022/07/07 07:25:49;;;;;;;;;;;;;;;24.42;36.80;101576.88;5059061;28;19925;-78
2022/07/07 07:28:15;;;;;;;;;;;;;;;24.44;37.26;101572.03;5083317;28;19920;-77
2022/07/07 07:30:42;;;;;;;;;;;;;;;24.47;36.81;101571.66;5062039;28;20204;-77
2022/07/07 07:33:09;;;;;;;;;;;;;;;24.51;37.20;101570.28;5053448;28;19925;-77
2022/07/07 07:35:35;;;;;;;;;;;;;;;24.55;36.47;101593.00;5072046;28;19925;-77
2022/07/07 07:38:02;;;;;;;;;;;;;;;24.58;36.63;101592.66;5056978;28;19921;-76
2022/07/07 07:40:28;;;;;;;;;;;;;;;24.59;36.75;101586.94;5064189;28;19920;-75
2022/07/07 07:42:55;;;;;;;;;;;;;;;24.59;37.01;101591.63;5058105;28;19921;-76
2022/07/07 07:45:21;;;;;;;;;;;;;;;24.59;36.90;101600.81;5053223;28;19967;-77
2022/07/07 07:47:48;;;;;;;;;;;;;;;24.60;36.61;101615.56;5060130;28;20374;-77
2022/07/07 07:50:16;;;;;;;;;;;;;;;24.61;36.94;101611.75;5070111;28;19947;-78
2022/07/07 07:52:43;;;;;;;;;;;;;;;24.58;36.34;101604.63;5063174;28;19927;-79
2022/07/07 07:55:11;;;;;;;;;;;;;;;24.59;36.93;101611.91;5070413;28;19966;-79
2022/07/07 07:57:37;;;;;;;;;;;;;;;24.58;36.56;101612.09;5063831;28;20379;-80
2022/07/07 08:00:05;;;;;;;;;;;;;;;24.59;36.93;101616.59;5069016;28;20486;-80
2022/07/07 08:02:32;;;;;;;;;;;;;;;24.59;36.61;101613.81;5082806;28;20593;-81
2022/07/07 08:04:58;;;;;;;;;;;;;;;24.59;37.07;101619.38;5086665;28;19967;-81
2022/07/07 08:07:25;;;;;;;;;;;;;;;24.60;36.57;101622.00;5038543;28;20388;-81
2022/07/07 08:09:51;;;;;;;;;;;;;;;24.61;36.76;101615.41;5053701;28;19972;-81
2022/07/07 08:12:18;;;;;;;;;;;;;;;24.65;36.76;101619.53;5062016;28;20323;-82
2022/07/07 08:14:47;;;;;;;;;;;;;;;24.67;37.00;101619.38;5045311;28;19935;-81
2022/07/07 08:17:14;;;;;;;;;;;;;;;24.69;36.67;101622.84;5039674;28;19975;-81
2022/07/07 08:19:40;;;;;;;;;;;;;;;24.70;36.91;101627.38;5052875;28;20438;-81
2022/07/07 08:22:07;;;;;;;;;;;;;;;24.73;36.49;101626.13;5048997;28;20364;-81
2022/07/07 08:24:33;;;;;;;;;;;;;;;24.73;36.87;101637.22;5046206;28;19972;-82
2022/07/07 08:27:00;;;;;;;;;;;;;;;24.73;36.64;101643.66;5050185;28;20435;-82
2022/07/07 08:29:29;;;;;;;;;;;;;;;24.74;36.19;101650.06;5040228;28;19925;-82
2022/07/07 08:31:59;;;;;;;;;;;;;;;24.73;36.58;101659.44;5047634;28;19956;-84
2022/07/07 08:34:25;;;;;;;;;;;;;;;24.73;36.58;101659.44;5048123;28;19921;-83
2022/07/07 08:36:52;;;;;;;;;;;;;;;24.72;36.60;101657.72;5052641;28;19956;-84
2022/07/07 08:39:19;;;;;;;;;;;;;;;24.71;36.48;101658.78;5049650;28;20370;-84
2022/07/07 08:41:45;;;;;;;;;;;;;;;24.69;36.63;101664.50;5041334;28;20249;-85
2022/07/07 08:44:12;;;;;;;;;;;;;;;24.67;36.58;101662.94;5038765;28;19975;-84
2022/07/07 08:46:40;;;;;;;;;;;;;;;24.65;36.27;101666.75;5053277;28;19920;-84
2022/07/07 08:49:07;;;;;;;;;;;;;;;24.64;36.27;101662.22;5039234;28;19970;-87
2022/07/07 08:51:34;;;;;;;;;;;;;;;24.61;36.29;101675.63;5051619;28;20348;-87
2022/07/07 08:54:00;;;;;;;;;;;;;;;24.59;36.43;101677.69;5043584;28;19925;-87
2022/07/07 08:56:27;;;;;;;;;;;;;;;24.60;35.85;101679.44;5053735;28;19920;-87
2022/07/07 08:58:54;;;;;;;;;;;;;;;24.60;36.42;101674.75;5049606;28;19921;-87
2022/07/07 09:01:29;;;;;;;;;;;;;;;24.63;36.13;101676.28;5059427;28;19927;-84
2022/07/07 09:03:56;;;;;;;;;;;;;;;24.65;36.87;101680.63;5032302;28;20371;-85
2022/07/07 09:06:23;;;;;;;;;;;;;;;24.71;36.08;101692.13;5048468;28;19920;-86
2022/07/07 09:08:51;;;;;;;;;;;;;;;24.74;36.69;101691.75;5067023;28;19928;-85
2022/07/07 09:11:34;;;;;;;;;;;;;;;24.77;36.34;101692.28;5063464;28;20461;-85
2022/07/07 09:14:10;;;;;;;;;;;;;;;24.82;36.73;101694.50;5050774;28;20438;-87
2022/07/07 09:16:37;;;;;;;;;;;;;;;24.86;36.25;101699.56;5050567;28;19921;-89
2022/07/07 09:19:16;;;;;;;;;;;;;;;24.92;36.46;101703.56;5044924;28;19932;-89
2022/07/07 09:21:43;;;;;;;;;;;;;;;24.97;36.22;101702.00;5053858;28;20523;-89
2022/07/07 09:24:12;;;;;;;;;;;;;;;25.04;36.45;101701.31;5041351;28;19928;-90
2022/07/07 09:26:40;;;;;;;;;;;;;;;25.09;36.14;101709.97;5055467;28;19975;-91
2022/07/07 09:29:14;;;;;;;;;;;;;;;25.13;36.26;101716.91;5042169;28;20363;-91
2022/07/07 09:31:50;;;;;;;;;;;;;;;25.16;35.83;101709.09;5038848;28;19925;-85
2022/07/07 09:34:17;;;;;;;;;;;;;;;25.19;35.82;101711.53;5058533;28;19928;-86
2022/07/07 09:39:42;;;;;;;;;;;;;;;25.25;35.83;101732.19;5047145;28;19995;-87
2022/07/07 09:42:32;;;;;;;;;;;;;;;25.29;35.94;101739.97;5040967;28;20248;-88
2022/07/07 09:45:00;;;;;;;;;;;;;;;25.30;35.76;101752.81;5049260;28;19920;-87
2022/07/07 09:47:27;;;;;;;;;;;;;;;25.33;35.52;101743.28;5048491;28;20383;-89
2022/07/07 09:49:58;;;;;;;;;;;;;;;25.32;35.55;101742.41;5047118;28;19920;-88
2022/07/07 09:52:26;;;;;;;;;;;;;;;25.34;35.56;101745.00;5052487;28;19920;-88
2022/07/07 09:54:53;;;;;;;;;;;;;;;25.34;35.51;101750.56;5041792;28;19994;-90
2022/07/07 09:57:20;;;;;;;;;;;;;;;25.36;35.98;101748.50;5024384;28;19928;-89
2022/07/07 09:59:46;;;;;;;;;;;;;;;25.36;36.12;101754.94;5050604;28;19935;-89
2022/07/07 10:02:23;;;;;;;;;;;;;;;25.39;35.50;101762.88;5033003;28;20011;-88
2022/07/07 10:04:51;;;;;;;;;;;;;;;25.42;35.64;101764.47;5043583;28;20013;-75
2022/07/07 10:07:18;;;;;;;;;;;;;;;25.46;35.63;101764.94;5040574;28;20010;-75
2022/07/07 10:09:48;;;;;;;;;;;;;;;25.50;36.12;101763.56;5039877;28;19929;-75
2022/07/07 10:12:16;;;;;;;;;;;;;;;25.54;35.74;101765.81;5038761;28;19952;-75
2022/07/07 10:14:43;;;;;;;;;;;;;;;25.60;35.59;101767.94;5039905;28;19956;-75
2022/07/07 10:17:10;;;;;;;;;;;;;;;25.67;35.70;101768.94;5037543;28;19963;-75
2022/07/07 10:19:37;;;;;;;;;;;;;;;25.74;35.82;101767.19;5039740;28;20014;-75
2022/07/07 10:22:04;;;;;;;;;;;;;;;25.82;35.57;101779.31;5039439;28;19972;-74
2022/07/07 10:24:32;;;;;;;;;;;;;;;25.89;35.73;101777.53;5055163;28;19928;-74
2022/07/07 10:26:59;;;;;;;;;;;;;;;25.96;35.95;101775.78;5045568;28;20011;-76
2022/07/07 10:29:42;;;;;;;;;;;;;;;26.02;35.78;101781.50;5048112;28;20035;-75
2022/07/07 10:32:14;;;;;;;;;;;;;;;26.06;35.35;101782.88;5046401;28;20391;-75
2022/07/07 10:34:47;;;;;;;;;;;;;;;26.09;35.30;101790.00;5048577;28;19928;-88
2022/07/07 10:37:14;;;;;;;;;;;;;;;26.12;34.90;101792.41;5044200;28;19931;-85
2022/07/07 10:39:43;;;;;;;;;;;;;;;26.14;35.26;101793.97;5046993;28;19927;-83
2022/07/07 10:42:15;;;;;;;;;;;;;;;26.14;34.83;101799.53;5047972;28;19924;-84
2022/07/07 10:44:46;;;;;;;;;;;;;;;26.14;35.10;101793.97;5046886;28;19921;-84
2022/07/07 10:47:12;;;;;;;;;;;;;;;26.14;34.79;101788.38;5060389;28;20525;-84
2022/07/07 10:49:46;;;;;;;;;;;;;;;26.13;34.44;101795.00;5060553;28;19948;-83
2022/07/07 10:52:22;;;;;;;;;;;;;;;26.13;34.70;101796.91;5051161;28;19920;-84
2022/07/07 10:54:50;;;;;;;;;;;;;;;26.12;34.91;101801.63;5056754;28;19970;-83
2022/07/07 10:57:18;;;;;;;;;;;;;;;26.11;34.89;101812.91;5058204;28;20439;-88
2022/07/07 10:59:59;;;;;;;;;;;;;;;26.08;34.39;101816.97;5053043;28;19955;-85
2022/07/07 11:02:29;;;;;;;;;;;;;;;26.06;34.42;101841.31;5058924;28;19924;-84
2022/07/07 11:04:57;;;;;;;;;;;;;;;26.03;34.55;101836.09;5053867;28;20330;-85
2022/07/07 11:07:28;;;;;;;;;;;;;;;25.98;34.76;101833.00;5029390;28;20027;-85
2022/07/07 11:10:06;;;;;;;;;;;;;;;25.94;34.54;101836.34;5057674;28;19955;-85
2022/07/07 11:12:34;;;;;;;;;;;;;;;25.89;34.47;101833.19;5072398;28;19932;-84
2022/07/07 11:15:22;;;;;;;;;;;;;;;25.85;34.71;101842.97;5049666;28;19928;-84
2022/07/07 11:18:06;;;;;;;;;;;;;;;25.81;34.90;101836.88;5045231;28;20341;-84
2022/07/07 11:20:33;;;;;;;;;;;;;;;25.78;34.48;101837.22;5043063;28;19931;-83
2022/07/07 11:23:09;;;;;;;;;;;;;;;25.76;34.86;101839.34;5056783;28;19921;-86
2022/07/07 11:25:37;;;;;;;;;;;;;;;25.75;35.11;101840.38;5053630;28;19921;-85
2022/07/07 11:28:04;;;;;;;;;;;;;;;25.76;34.83;101839.34;5046701;28;20376;-86
2022/07/07 11:30:31;;;;;;;;;;;;;;;25.78;35.10;101843.66;5052262;28;19920;-88
2022/07/07 11:32:58;;;;;;;;;;;;;;;25.80;34.97;101842.63;5057013;28;19927;-85
2022/07/07 11:35:29;;;;;;;;;;;;;;;25.80;35.28;101835.13;5060284;28;19921;-86
2022/07/07 11:38:05;;;;;;;;;;;;;;;25.82;34.90;101844.19;5062313;28;19924;-85
2022/07/07 11:40:39;;;;;;;;;;;;;;;25.84;35.09;101853.22;5060534;28;19921;-85
2022/07/07 11:43:06;;;;;;;;;;;;;;;25.83;35.15;101859.81;5045027;28;20287;-86
2022/07/07 11:45:38;;;;;;;;;;;;;;;25.82;35.11;101865.56;5067145;28;19925;-87
2022/07/07 11:48:07;;;;;;;;;;;;;;;25.79;34.67;101877.91;5042467;28;19936;-87
2022/07/07 11:50:35;;;;;;;;;;;;;;;25.76;35.07;101862.47;5066931;28;20386;-87
2022/07/07 11:53:06;;;;;;;;;;;;;;;25.72;34.63;101868.53;5054833;28;19928;-86
2022/07/07 11:55:33;;;;;;;;;;;;;;;25.68;34.75;101869.94;5062737;28;19921;-85
2022/07/07 11:58:06;;;;;;;;;;;;;;;25.65;34.93;101867.50;5064031;28;19967;-86
2022/07/07 12:00:34;;;;;;;;;;;;;;;25.59;34.97;101874.66;5043977;28;20446;-86
2022/07/07 12:03:02;;;;;;;;;;;;;;;25.56;35.12;101866.63;5053859;28;19974;-85
2022/07/07 12:05:30;;;;;;;;;;;;;;;25.54;35.08;101873.38;5051366;28;19927;-86
2022/07/07 12:08:05;;;;;;;;;;;;;;;25.52;35.08;101872.72;5024879;28;19967;-86
2022/07/07 12:10:35;;;;;;;;;;;;;;;25.50;35.40;101869.25;5031193;28;19924;-85
2022/07/07 12:13:04;;;;;;;;;;;;;;;25.51;35.79;101882.09;5039236;28;20004;-84
2022/07/07 12:15:34;;;;;;;;;;;;;;;25.49;35.40;101875.84;5030178;28;19931;-84
2022/07/07 12:18:01;;;;;;;;;;;;;;;25.50;35.44;101884.00;5032385;28;19925;-84
2022/07/07 12:20:28;;;;;;;;;;;;;;;25.52;35.47;101879.16;5035204;28;19921;-83
2022/07/07 12:23:03;;;;;;;;;;;;;;;25.51;35.23;101891.31;5017185;28;19921;-83
2022/07/07 12:25:31;;;;;;;;;;;;;;;25.51;35.42;101890.44;5044891;28;19975;-87
2022/07/07 12:28:07;;;;;;;;;;;;;;;25.50;35.24;101885.94;5031598;28;19927;-86
2022/07/07 12:30:35;;;;;;;;;;;;;;;25.50;34.93;101888.72;5026156;28;19920;-85
2022/07/07 12:33:01;;;;;;;;;;;;;;;25.49;35.06;101893.41;5036738;28;19955;-84
2022/07/07 12:35:33;;;;;;;;;;;;;;;25.49;35.05;101889.75;5040750;28;19964;-85
2022/07/07 12:38:00;;;;;;;;;;;;;;;25.49;35.11;101892.53;5022437;28;20504;-86
2022/07/07 12:40:27;;;;;;;;;;;;;;;25.49;35.12;101892.53;5036542;28;19956;-86